Time;durP1;ratioP1;P1;durP2;ratioP2;P2;SDS_P1;SDS_P2;PMS_P1;PMS_P2;Temp;Humidity;BMP_temperature;BMP_pressure;BME280_temperature;BME280_humidity;BME280_pressure;Samples;Min_cycle;Max_cycle;Signal;HPM_P1;HPM_P2
2022/08/05 00:01:22;;;;;;;2.13;1.73;;;23.10;99.90;;;;;;5036139;28;20868;-70
2022/08/05 00:03:49;;;;;;;3.53;1.70;;;22.90;99.90;;;;;;5051058;22;20488;-69
2022/08/05 00:06:18;;;;;;;2.70;1.93;;;22.60;99.90;;;;;;5070392;28;20481;-69
2022/08/05 00:08:45;;;;;;;3.70;2.27;;;22.40;99.90;;;;;;5073293;28;20485;-70
2022/08/05 00:11:14;;;;;;;4.67;2.13;;;22.40;99.90;;;;;;5071124;28;20501;-69
2022/08/05 00:13:42;;;;;;;2.93;1.77;;;22.50;99.90;;;;;;5066381;28;20528;-70
2022/08/05 00:16:12;;;;;;;3.50;2.40;;;22.50;99.90;;;;;;5069001;28;21148;-71
2022/08/05 00:18:40;;;;;;;3.07;1.97;;;22.50;99.90;;;;;;5067337;28;20465;-72
2022/08/05 00:21:07;;;;;;;7.27;2.60;;;22.50;99.90;;;;;;5067076;28;20635;-70
2022/08/05 00:23:36;;;;;;;4.80;2.87;;;22.40;99.90;;;;;;5067159;28;20763;-71
2022/08/05 00:26:03;;;;;;;3.37;1.80;;;22.40;99.90;;;;;;5074788;28;20454;-71
2022/08/05 00:28:30;;;;;;;5.80;4.23;;;22.40;99.90;;;;;;5070324;28;21207;-69
2022/08/05 00:30:57;;;;;;;3.17;2.50;;;22.40;99.90;;;;;;5064489;28;20505;-71
2022/08/05 00:33:24;;;;;;;3.63;2.53;;;22.40;99.90;;;;;;5057212;28;20465;-69
2022/08/05 00:35:51;;;;;;;2.10;1.90;;;22.40;99.90;;;;;;5062844;28;20492;-70
2022/08/05 00:38:17;;;;;;;7.63;2.53;;;22.30;99.90;;;;;;5062543;28;20454;-70
2022/08/05 00:40:50;;;;;;;5.03;3.07;;;22.30;99.90;;;;;;5067763;28;20470;-69
2022/08/05 00:43:17;;;;;;;3.00;2.13;;;22.30;99.90;;;;;;5069971;28;21273;-69
2022/08/05 00:45:44;;;;;;;2.50;2.30;;;22.30;99.90;;;;;;5054999;28;20483;-69
2022/08/05 00:48:12;;;;;;;2.53;2.20;;;22.20;99.90;;;;;;5071099;28;20482;-69
2022/08/05 00:50:40;;;;;;;3.10;2.23;;;22.20;99.90;;;;;;5068403;28;20467;-68
2022/08/05 00:53:07;;;;;;;3.20;2.23;;;22.20;99.90;;;;;;5065705;28;20463;-68
2022/08/05 00:55:34;;;;;;;4.37;2.53;;;22.10;99.90;;;;;;5062014;28;20567;-69
2022/08/05 00:58:02;;;;;;;3.80;2.33;;;22.20;99.90;;;;;;5061543;28;20463;-70
2022/08/05 01:00:30;;;;;;;4.00;2.87;;;22.10;99.90;;;;;;5072342;28;21052;-69
2022/08/05 01:02:58;;;;;;;3.10;2.33;;;22.20;99.90;;;;;;5070250;28;20462;-70
2022/08/05 01:05:25;;;;;;;7.67;2.37;;;22.20;99.90;;;;;;5072487;28;20531;-70
2022/08/05 01:07:52;;;;;;;4.40;2.10;;;22.20;99.90;;;;;;5072806;28;20455;-69
2022/08/05 01:10:24;;;;;;;3.83;2.47;;;22.40;99.90;;;;;;5075181;28;20454;-69
2022/08/05 01:12:56;;;;;;;2.37;2.10;;;22.40;99.90;;;;;;5082831;28;20452;-69
2022/08/05 01:15:29;;;;;;;5.20;2.73;;;22.40;99.90;;;;;;5078239;28;20564;-69
2022/08/05 01:18:01;;;;;;;1.93;1.73;;;22.40;99.90;;;;;;5069933;28;20482;-69
2022/08/05 01:20:46;;;;;;;3.60;3.30;;;22.70;99.90;;;;;;5075825;28;20460;-69
2022/08/05 01:23:23;;;;;;;2.27;2.07;;;22.70;99.90;;;;;;5070482;28;20469;-71
2022/08/05 01:26:11;;;;;;;3.90;2.10;;;22.60;99.90;;;;;;5057551;28;21442;-70
2022/08/05 01:28:46;;;;;;;4.20;2.07;;;22.50;99.90;;;;;;5069750;28;20474;-70
2022/08/05 01:31:27;;;;;;;3.73;2.43;;;22.50;99.90;;;;;;5060818;28;20456;-69
2022/08/05 01:34:01;;;;;;;2.83;2.53;;;22.50;99.90;;;;;;5061710;28;20469;-69
2022/08/05 01:36:33;;;;;;;3.43;2.87;;;22.40;99.90;;;;;;5066455;28;20447;-68
2022/08/05 01:39:01;;;;;;;3.20;2.20;;;22.30;99.90;;;;;;5064445;28;20457;-70
2022/08/05 01:41:33;;;;;;;2.37;2.17;;;22.10;99.90;;;;;;5072664;28;21362;-70
2022/08/05 01:44:02;;;;;;;5.50;2.27;;;22.00;99.90;;;;;;5074273;28;20477;-70
2022/08/05 01:46:31;;;;;;;5.30;2.70;;;21.80;99.90;;;;;;5073291;28;20832;-71
2022/08/05 01:48:59;;;;;;;2.90;2.60;;;21.80;99.90;;;;;;5074184;28;20846;-71
2022/08/05 01:51:27;;;;;;;6.13;2.20;;;21.80;99.90;;;;;;5074176;28;20463;-69
2022/08/05 01:53:55;;;;;;;3.57;2.63;;;21.80;99.90;;;;;;5066093;28;20661;-70
2022/08/05 01:56:24;;;;;;;2.80;2.23;;;21.80;99.90;;;;;;5073590;28;21013;-71
2022/08/05 01:58:52;;;;;;;5.10;2.97;;;21.80;99.90;;;;;;5069608;28;20950;-71
2022/08/05 02:01:21;;;;;;;2.10;1.90;;;21.60;99.90;;;;;;5067754;28;20458;-71
2022/08/05 02:03:51;;;;;;;3.27;2.20;;;21.50;99.90;;;;;;5069502;28;20459;-71
2022/08/05 02:06:21;;;;;;;2.90;2.43;;;21.50;99.90;;;;;;5071361;28;20454;-70
2022/08/05 02:08:48;;;;;;;2.73;2.23;;;21.60;99.90;;;;;;5068791;28;20470;-71
2022/08/05 02:11:17;;;;;;;2.57;2.37;;;21.70;99.90;;;;;;5073857;28;20459;-70
2022/08/05 02:13:51;;;;;;;5.67;2.30;;;21.70;99.90;;;;;;5067731;28;20463;-70
2022/08/05 02:16:22;;;;;;;3.03;2.40;;;21.70;99.90;;;;;;5067333;28;20506;-69
2022/08/05 02:18:53;;;;;;;9.00;2.60;;;21.70;99.90;;;;;;5066683;28;20952;-69
2022/08/05 02:21:24;;;;;;;3.07;2.67;;;21.80;99.90;;;;;;5076189;28;20983;-70
2022/08/05 02:23:56;;;;;;;7.30;3.63;;;21.60;99.90;;;;;;5072113;28;20471;-70
2022/08/05 02:26:33;;;;;;;6.00;2.80;;;21.70;99.90;;;;;;5058859;28;20466;-69
2022/08/05 02:29:01;;;;;;;4.60;3.30;;;21.80;99.90;;;;;;5073101;28;20851;-68
2022/08/05 02:31:33;;;;;;;3.80;3.00;;;21.40;99.90;;;;;;5066151;28;20468;-68
2022/08/05 02:34:10;;;;;;;3.07;2.47;;;21.30;99.90;;;;;;5057034;28;20496;-69
2022/08/05 02:36:42;;;;;;;7.93;3.53;;;21.30;99.90;;;;;;5069587;28;21299;-70
2022/08/05 02:39:09;;;;;;;7.00;3.40;;;21.40;99.90;;;;;;5074168;28;20462;-69
2022/08/05 02:41:38;;;;;;;3.50;3.20;;;21.50;99.90;;;;;;5064486;28;20458;-71
2022/08/05 02:44:07;;;;;;;4.80;2.93;;;21.50;99.90;;;;;;5070470;28;20478;-70
2022/08/05 02:46:38;;;;;;;11.20;3.37;;;21.40;99.90;;;;;;5067494;28;20462;-70
2022/08/05 02:49:06;;;;;;;2.57;2.30;;;21.30;99.90;;;;;;5065894;28;20470;-71
2022/08/05 02:51:34;;;;;;;4.00;2.87;;;21.40;99.90;;;;;;5068460;28;21041;-70
2022/08/05 02:54:01;;;;;;;4.80;3.10;;;21.30;99.90;;;;;;5073806;28;20493;-70
2022/08/05 02:56:29;;;;;;;2.67;2.47;;;21.30;99.90;;;;;;5072789;28;20454;-69
2022/08/05 02:58:58;;;;;;;8.80;3.03;;;21.20;99.90;;;;;;5066024;28;20446;-69
2022/08/05 03:01:26;;;;;;;5.57;3.40;;;20.90;99.90;;;;;;5062267;28;20469;-70
2022/08/05 03:03:58;;;;;;;5.30;3.47;;;20.90;99.90;;;;;;5054900;28;20525;-70
2022/08/05 03:06:27;;;;;;;5.57;3.87;;;20.90;99.90;;;;;;5071050;28;20574;-70
2022/08/05 03:08:55;;;;;;;4.50;3.00;;;21.00;99.90;;;;;;5065519;28;20488;-70
2022/08/05 03:11:23;;;;;;;5.63;4.00;;;20.80;99.90;;;;;;5064064;28;20463;-69
2022/08/05 03:13:50;;;;;;;5.27;3.00;;;20.80;99.90;;;;;;5075289;28;21023;-69
2022/08/05 03:16:17;;;;;;;4.97;3.70;;;20.90;99.90;;;;;;5066819;28;20470;-70
2022/08/05 03:18:44;;;;;;;13.37;3.40;;;20.90;99.90;;;;;;5068404;28;20463;-69
2022/08/05 03:21:13;;;;;;;6.63;3.40;;;21.00;99.90;;;;;;5067482;28;20466;-68
2022/08/05 03:23:42;;;;;;;6.17;4.03;;;20.90;99.90;;;;;;5059180;28;20457;-68
2022/08/05 03:26:10;;;;;;;5.67;5.07;;;20.90;99.90;;;;;;5059025;28;20475;-68
2022/08/05 03:28:37;;;;;;;6.10;4.20;;;20.70;99.90;;;;;;5063256;28;20470;-68
2022/08/05 03:31:05;;;;;;;6.20;4.73;;;20.90;99.90;;;;;;5059132;28;20700;-69
2022/08/05 03:33:32;;;;;;;4.77;3.87;;;20.80;99.90;;;;;;5069514;28;20904;-69
2022/08/05 03:35:59;;;;;;;6.50;4.20;;;20.70;99.90;;;;;;5072751;28;20489;-69
2022/08/05 03:38:28;;;;;;;4.63;3.97;;;20.80;99.90;;;;;;5071099;28;20464;-69
2022/08/05 03:40:55;;;;;;;6.60;4.20;;;20.90;99.90;;;;;;5063016;28;20450;-69
2022/08/05 03:43:23;;;;;;;6.30;4.07;;;20.90;99.90;;;;;;5068987;28;20462;-68
2022/08/05 03:45:51;;;;;;;6.10;3.40;;;20.70;99.90;;;;;;5068027;28;20829;-68
2022/08/05 03:48:18;;;;;;;8.10;4.20;;;20.70;99.90;;;;;;5063493;28;20458;-68
2022/08/05 03:50:52;;;;;;;5.97;3.87;;;20.50;99.90;;;;;;5076388;28;20473;-68
2022/08/05 03:53:25;;;;;;;6.93;4.13;;;20.40;99.90;;;;;;5076770;28;20520;-68
2022/08/05 03:56:00;;;;;;;5.60;4.40;;;20.30;99.90;;;;;;5068232;28;20478;-69
2022/08/05 03:58:30;;;;;;;12.33;4.43;;;20.30;99.90;;;;;;5079073;28;20460;-68
2022/08/05 04:01:01;;;;;;;7.70;5.03;;;20.30;99.90;;;;;;5061742;28;20477;-68
2022/08/05 04:03:31;;;;;;;8.03;3.43;;;20.20;99.90;;;;;;5067812;28;20955;-68
2022/08/05 04:05:59;;;;;;;6.57;5.17;;;20.10;99.90;;;;;;5072202;28;20823;-68
2022/08/05 04:08:29;;;;;;;5.33;4.53;;;19.90;99.90;;;;;;5077198;28;20490;-68
2022/08/05 04:10:58;;;;;;;9.93;6.00;;;20.00;99.90;;;;;;5079583;28;20501;-69
2022/08/05 04:13:25;;;;;;;9.17;5.57;;;19.90;99.90;;;;;;5085429;28;20462;-69
2022/08/05 04:15:52;;;;;;;7.77;5.93;;;19.90;99.90;;;;;;5062747;28;20490;-69
2022/08/05 04:18:19;;;;;;;9.67;5.57;;;20.00;99.90;;;;;;5067206;28;20492;-69
2022/08/05 04:20:53;;;;;;;7.97;5.50;;;20.10;99.90;;;;;;5064774;28;20506;-69
2022/08/05 04:23:20;;;;;;;8.73;6.33;;;20.20;99.90;;;;;;5065931;28;20450;-69
2022/08/05 04:25:47;;;;;;;8.30;5.47;;;20.30;99.90;;;;;;5073374;28;20868;-69
2022/08/05 04:28:15;;;;;;;7.43;5.40;;;20.30;99.90;;;;;;5078314;28;20837;-69
2022/08/05 04:30:42;;;;;;;7.43;4.70;;;20.30;99.90;;;;;;5075928;28;20858;-69
2022/08/05 04:33:08;;;;;;;14.93;5.83;;;20.20;99.90;;;;;;5069056;28;21015;-69
2022/08/05 04:35:35;;;;;;;8.80;5.47;;;20.20;99.90;;;;;;5077031;28;20473;-68
2022/08/05 04:38:02;;;;;;;10.17;6.30;;;20.30;99.90;;;;;;5056701;28;21002;-69
2022/08/05 04:40:29;;;;;;;6.90;5.60;;;20.30;99.90;;;;;;5066280;28;20465;-68
2022/08/05 04:42:56;;;;;;;8.87;5.40;;;20.10;99.90;;;;;;5076732;28;20460;-69
2022/08/05 04:45:24;;;;;;;8.50;5.87;;;19.90;99.90;;;;;;5069147;28;20843;-68
2022/08/05 04:47:51;;;;;;;11.23;6.27;;;20.10;99.90;;;;;;5074001;28;20971;-69
2022/08/05 04:50:18;;;;;;;15.77;7.33;;;20.10;99.90;;;;;;5085132;28;20473;-71
2022/08/05 04:52:45;;;;;;;13.80;7.93;;;20.10;99.90;;;;;;5086366;28;20452;-70
2022/08/05 04:55:12;;;;;;;7.43;5.53;;;20.10;99.90;;;;;;5083851;28;20477;-68
2022/08/05 04:57:39;;;;;;;11.00;7.07;;;20.20;99.90;;;;;;5078998;28;20550;-68
2022/08/05 05:00:07;;;;;;;12.27;8.17;;;20.20;99.90;;;;;;5082644;28;20973;-69
2022/08/05 05:02:35;;;;;;;7.90;6.20;;;20.20;99.90;;;;;;5080089;28;20463;-68
2022/08/05 05:05:02;;;;;;;8.40;6.00;;;20.20;99.90;;;;;;5076766;28;20496;-69
2022/08/05 05:07:28;;;;;;;15.43;7.03;;;20.10;99.90;;;;;;5082834;28;20466;-69
2022/08/05 05:09:55;;;;;;;11.30;6.63;;;20.20;99.90;;;;;;5076963;28;21020;-69
2022/08/05 05:12:23;;;;;;;12.73;8.50;;;20.10;99.90;;;;;;5086324;28;20461;-69
2022/08/05 05:14:49;;;;;;;9.97;6.40;;;20.30;99.90;;;;;;5081898;28;20592;-69
2022/08/05 05:17:16;;;;;;;8.00;5.60;;;20.20;99.90;;;;;;5084783;28;20448;-69
2022/08/05 05:19:44;;;;;;;10.10;5.97;;;20.10;99.90;;;;;;5082170;28;20469;-68
2022/08/05 05:22:11;;;;;;;8.67;6.03;;;20.20;99.90;;;;;;5086098;28;20548;-68
2022/08/05 05:24:38;;;;;;;9.70;7.00;;;20.20;99.90;;;;;;5082570;28;20462;-68
2022/08/05 05:27:05;;;;;;;12.30;8.87;;;20.10;99.90;;;;;;5077638;28;20458;-68
2022/08/05 05:29:32;;;;;;;14.10;7.73;;;20.10;99.90;;;;;;5084192;28;20484;-68
2022/08/05 05:31:59;;;;;;;9.77;6.63;;;20.00;99.90;;;;;;5080677;28;20949;-68
2022/08/05 05:34:25;;;;;;;9.70;7.43;;;19.90;99.90;;;;;;5080307;28;20473;-68
2022/08/05 05:36:53;;;;;;;9.13;7.90;;;19.90;99.90;;;;;;5083679;28;20461;-68
2022/08/05 05:39:21;;;;;;;12.53;7.53;;;20.00;99.90;;;;;;5084213;28;20442;-69
2022/08/05 05:41:48;;;;;;;12.20;6.47;;;20.00;99.90;;;;;;5085300;28;20583;-69
2022/08/05 05:44:14;;;;;;;12.60;7.83;;;20.00;99.90;;;;;;5083428;28;20471;-70
2022/08/05 05:46:41;;;;;;;11.27;6.90;;;20.10;99.90;;;;;;5083169;28;20458;-70
2022/08/05 05:49:08;;;;;;;10.70;7.30;;;20.20;99.90;;;;;;5083075;28;20880;-70
2022/08/05 05:51:35;;;;;;;12.80;7.93;;;20.30;99.90;;;;;;5083697;28;20451;-69
2022/08/05 05:54:03;;;;;;;9.60;7.27;;;20.20;99.90;;;;;;5081436;28;20505;-68
2022/08/05 05:56:31;;;;;;;11.07;8.80;;;20.40;99.90;;;;;;5077404;28;20966;-68
2022/08/05 05:58:58;;;;;;;14.60;6.60;;;20.40;99.90;;;;;;5074991;28;21017;-68
2022/08/05 06:01:25;;;;;;;12.57;9.27;;;20.30;99.90;;;;;;5082635;28;20478;-69
2022/08/05 06:03:52;;;;;;;12.00;6.73;;;20.20;99.90;;;;;;5072997;28;20456;-69
2022/08/05 06:06:19;;;;;;;11.57;8.33;;;20.20;99.90;;;;;;5083296;28;20450;-68
2022/08/05 06:08:45;;;;;;;14.37;8.83;;;20.20;99.90;;;;;;5076355;28;20838;-68
2022/08/05 06:11:14;;;;;;;19.67;8.63;;;20.10;99.90;;;;;;5080731;28;20578;-68
2022/08/05 06:13:41;;;;;;;12.63;7.73;;;20.10;99.90;;;;;;5078816;28;20501;-68
2022/08/05 06:16:08;;;;;;;17.33;8.93;;;19.70;99.90;;;;;;5080413;28;20776;-69
2022/08/05 06:18:36;;;;;;;12.70;7.87;;;19.80;99.90;;;;;;5082996;28;20460;-69
2022/08/05 06:21:03;;;;;;;12.27;9.70;;;19.90;99.90;;;;;;5079143;28;20535;-68
2022/08/05 06:23:31;;;;;;;10.40;6.50;;;19.90;99.90;;;;;;5083840;28;20478;-70
2022/08/05 06:25:59;;;;;;;13.23;8.13;;;19.90;99.90;;;;;;5080671;28;20475;-68
2022/08/05 06:28:28;;;;;;;9.13;6.60;;;19.90;99.90;;;;;;5074913;22;20547;-72
2022/08/05 06:30:55;;;;;;;15.60;8.23;;;19.80;99.90;;;;;;5079926;28;20470;-71
2022/08/05 06:33:22;;;;;;;12.07;7.97;;;19.80;99.90;;;;;;5078393;28;20446;-71
2022/08/05 06:35:49;;;;;;;12.70;6.80;;;19.80;99.90;;;;;;5084837;28;20872;-72
2022/08/05 06:38:16;;;;;;;13.70;7.60;;;19.90;99.90;;;;;;5083032;28;20578;-71
2022/08/05 06:40:43;;;;;;;12.77;8.30;;;19.80;99.90;;;;;;5080665;28;21345;-70
2022/08/05 06:43:09;;;;;;;9.53;6.20;;;19.90;99.90;;;;;;5087161;28;20533;-71
2022/08/05 06:45:38;;;;;;;11.60;7.90;;;19.80;99.90;;;;;;5094751;28;20442;-71
2022/08/05 06:48:05;;;;;;;10.37;7.00;;;19.70;99.90;;;;;;5085704;28;21426;-70
2022/08/05 06:50:32;;;;;;;12.03;7.53;;;19.60;99.90;;;;;;5086621;28;20475;-70
2022/08/05 06:52:58;;;;;;;11.07;6.80;;;19.60;99.90;;;;;;5083369;28;21496;-70
2022/08/05 06:55:25;;;;;;;12.40;7.17;;;19.70;99.90;;;;;;5079043;28;20491;-71
2022/08/05 06:57:52;;;;;;;18.80;8.10;;;19.60;99.90;;;;;;5076389;28;20488;-71
2022/08/05 07:00:19;;;;;;;7.47;6.43;;;19.40;99.90;;;;;;5080676;28;20447;-71
2022/08/05 07:02:48;;;;;;;20.67;7.67;;;19.40;99.90;;;;;;5082733;28;20466;-70
2022/08/05 07:05:15;;;;;;;8.30;6.77;;;19.50;99.90;;;;;;5072525;28;20951;-71
2022/08/05 07:07:42;;;;;;;10.27;7.13;;;19.40;99.90;;;;;;5080802;28;20660;-72
2022/08/05 07:10:10;;;;;;;9.40;6.13;;;19.30;99.90;;;;;;5076589;28;20568;-71
2022/08/05 07:18:07;;;;;;;10.43;5.70;;;19.30;99.90;;;;;;5077142;28;20476;-71
2022/08/05 07:20:34;;;;;;;8.30;5.77;;;19.30;99.90;;;;;;5077573;28;20625;-71
2022/08/05 07:23:01;;;;;;;9.87;6.93;;;19.30;99.90;;;;;;5075045;28;20996;-71
2022/08/05 07:25:27;;;;;;;10.47;7.23;;;19.40;99.90;;;;;;5081303;28;20695;-71
2022/08/05 07:27:56;;;;;;;7.50;6.27;;;19.50;99.90;;;;;;5080061;28;20490;-71
2022/08/05 07:30:23;;;;;;;9.53;6.60;;;19.50;99.90;;;;;;5078100;28;20446;-71
2022/08/05 07:32:49;;;;;;;13.20;5.90;;;19.50;99.90;;;;;;5078499;28;20529;-71
2022/08/05 07:35:18;;;;;;;7.73;5.90;;;19.40;99.90;;;;;;5082184;28;20888;-71
2022/08/05 07:37:44;;;;;;;5.87;4.87;;;19.40;99.90;;;;;;5081165;28;20978;-73
2022/08/05 07:40:11;;;;;;;6.60;4.60;;;19.40;99.90;;;;;;5079578;28;20486;-72
2022/08/05 07:42:38;;;;;;;10.77;6.20;;;19.30;99.90;;;;;;5075490;28;20472;-71
2022/08/05 07:45:06;;;;;;;13.33;3.90;;;19.40;99.90;;;;;;5077742;28;20455;-72
2022/08/05 07:47:33;;;;;;;8.57;4.67;;;19.40;99.90;;;;;;5078876;28;20982;-70
2022/08/05 07:50:00;;;;;;;8.50;4.03;;;19.30;99.90;;;;;;5077081;28;20957;-71
2022/08/05 07:52:28;;;;;;;7.87;4.17;;;19.30;99.90;;;;;;5083027;28;20957;-72
2022/08/05 07:54:55;;;;;;;5.83;4.07;;;19.50;99.90;;;;;;5075489;28;20468;-72
2022/08/05 07:57:22;;;;;;;10.23;4.80;;;19.50;99.90;;;;;;5075823;28;20854;-71
2022/08/05 07:59:48;;;;;;;5.73;4.10;;;19.70;99.90;;;;;;5079939;28;20787;-72
2022/08/05 08:02:15;;;;;;;7.80;3.50;;;19.60;99.90;;;;;;5077386;28;20944;-72
2022/08/05 08:04:42;;;;;;;6.80;4.17;;;19.50;99.90;;;;;;5076156;28;21186;-71
2022/08/05 08:07:09;;;;;;;5.67;5.10;;;19.40;99.90;;;;;;5077910;28;20446;-72
2022/08/05 08:09:37;;;;;;;5.53;4.23;;;19.30;99.90;;;;;;5075101;28;20463;-71
2022/08/05 08:12:04;;;;;;;7.00;4.40;;;19.50;99.90;;;;;;5072893;28;20450;-72
2022/08/05 08:14:31;;;;;;;6.60;5.03;;;19.50;99.90;;;;;;5079787;28;20461;-71
2022/08/05 08:16:58;;;;;;;10.20;4.37;;;19.40;99.90;;;;;;5080310;28;20434;-71
2022/08/05 08:19:24;;;;;;;5.80;4.47;;;19.30;99.90;;;;;;5081303;28;20466;-72
2022/08/05 08:21:51;;;;;;;7.30;4.07;;;19.40;99.90;;;;;;5083458;28;20488;-71
2022/08/05 08:24:18;;;;;;;6.90;4.03;;;19.30;99.90;;;;;;5088996;28;20472;-71
2022/08/05 08:26:49;;;;;;;4.07;3.53;;;19.40;99.90;;;;;;5081436;28;21019;-71
2022/08/05 08:29:16;;;;;;;4.37;3.70;;;19.30;99.90;;;;;;5086224;28;20474;-72
2022/08/05 08:31:42;;;;;;;3.60;3.30;;;19.30;99.90;;;;;;5077362;28;20438;-70
2022/08/05 08:34:09;;;;;;;4.00;3.30;;;19.50;99.90;;;;;;5080151;28;20440;-72
2022/08/05 08:36:36;;;;;;;4.23;3.47;;;19.40;99.90;;;;;;5087666;28;20565;-71
2022/08/05 08:39:03;;;;;;;7.33;3.70;;;19.40;99.90;;;;;;5084389;28;20485;-71
2022/08/05 08:41:33;;;;;;;4.33;3.30;;;19.30;99.90;;;;;;5083513;28;20479;-71
2022/08/05 08:44:02;;;;;;;5.87;3.10;;;19.30;99.90;;;;;;5083587;28;20473;-71
2022/08/05 08:46:31;;;;;;;6.73;4.00;;;19.40;99.90;;;;;;5078381;28;20947;-71
2022/08/05 08:48:58;;;;;;;3.53;2.60;;;19.50;99.90;;;;;;5083359;28;20516;-72
2022/08/05 08:51:31;;;;;;;3.60;3.27;;;19.60;99.90;;;;;;5084617;28;20449;-72
2022/08/05 08:53:58;;;;;;;4.67;3.33;;;19.70;99.90;;;;;;5083297;28;20557;-72
2022/08/05 08:56:25;;;;;;;5.20;4.10;;;19.60;99.90;;;;;;5081530;28;20462;-71
2022/08/05 08:58:52;;;;;;;3.50;3.10;;;19.60;99.90;;;;;;5079568;28;20502;-72
2022/08/05 09:01:21;;;;;;;7.80;3.83;;;19.60;99.90;;;;;;5082817;28;20481;-71
2022/08/05 09:03:51;;;;;;;12.17;3.80;;;19.60;99.90;;;;;;5084296;28;20454;-72
2022/08/05 09:06:17;;;;;;;8.53;3.90;;;19.60;99.90;;;;;;5080933;28;20450;-72
2022/08/05 09:08:44;;;;;;;5.00;3.27;;;19.60;99.90;;;;;;5082647;28;20838;-71
2022/08/05 09:11:12;;;;;;;6.53;3.20;;;19.70;99.90;;;;;;5079249;28;20465;-71
2022/08/05 09:13:39;;;;;;;4.40;3.50;;;19.60;99.90;;;;;;5084110;28;20474;-71
2022/08/05 09:16:08;;;;;;;8.20;4.00;;;19.70;99.90;;;;;;5081299;28;20472;-71
2022/08/05 09:18:37;;;;;;;5.83;3.60;;;19.70;99.90;;;;;;5086495;28;20469;-71
2022/08/05 09:21:05;;;;;;;4.97;3.40;;;19.80;99.90;;;;;;5084104;28;20481;-72
2022/08/05 09:23:32;;;;;;;4.57;3.50;;;20.00;99.90;;;;;;5076045;28;20457;-71
2022/08/05 09:26:08;;;;;;;3.60;3.30;;;20.10;99.90;;;;;;5078830;28;20515;-72
2022/08/05 09:28:36;;;;;;;6.53;3.53;;;20.00;99.90;;;;;;5077121;28;20945;-71
2022/08/05 09:31:05;;;;;;;3.23;2.90;;;20.00;99.90;;;;;;5078438;28;20442;-71
2022/08/05 09:33:50;;;;;;;3.37;2.93;;;19.90;99.90;;;;;;5076703;28;20455;-71
2022/08/05 09:36:17;;;;;;;3.43;3.13;;;19.90;99.90;;;;;;5080772;28;20961;-72
2022/08/05 09:38:57;;;;;;;3.03;2.70;;;20.10;99.90;;;;;;5080871;28;20901;-72
2022/08/05 09:41:24;;;;;;;3.70;2.90;;;20.20;99.90;;;;;;5085843;28;20473;-72
2022/08/05 09:43:51;;;;;;;3.13;2.83;;;20.40;99.90;;;;;;5083236;28;20442;-72
2022/08/05 09:46:26;;;;;;;4.90;3.00;;;20.40;99.90;;;;;;5080521;28;20953;-72
2022/08/05 09:48:55;;;;;;;5.73;3.17;;;20.30;99.90;;;;;;5080728;28;20478;-72
2022/08/05 09:51:32;;;;;;;6.17;3.60;;;20.40;99.90;;;;;;5080242;28;21246;-71
2022/08/05 09:53:59;;;;;;;5.70;3.13;;;20.40;99.90;;;;;;5079820;28;20434;-72
2022/08/05 09:56:27;;;;;;;6.60;2.97;;;20.50;99.90;;;;;;5080612;28;20458;-72
2022/08/05 09:58:59;;;;;;;3.10;2.70;;;20.40;99.90;;;;;;5072342;28;20470;-71
2022/08/05 10:01:26;;;;;;;7.43;3.87;;;20.30;99.90;;;;;;5080676;28;21036;-71
2022/08/05 10:03:59;;;;;;;3.17;2.80;;;20.20;99.90;;;;;;5079245;28;20469;-71
2022/08/05 10:06:27;;;;;;;5.23;3.07;;;20.30;99.90;;;;;;5077694;28;20469;-71
2022/08/05 10:08:54;;;;;;;5.20;3.20;;;20.40;99.90;;;;;;5081845;28;20542;-71
2022/08/05 10:11:22;;;;;;;6.70;3.03;;;20.40;99.90;;;;;;5077188;28;20846;-71
2022/08/05 10:13:48;;;;;;;8.17;3.50;;;20.20;99.90;;;;;;5081213;28;20572;-72
2022/08/05 10:16:30;;;;;;;4.73;3.37;;;20.30;99.90;;;;;;5082030;28;20447;-71
2022/08/05 10:18:58;;;;;;;2.67;2.47;;;20.20;99.90;;;;;;5082508;28;20470;-71
2022/08/05 10:21:26;;;;;;;9.70;3.10;;;20.40;99.90;;;;;;5076472;28;20478;-71
2022/08/05 10:23:53;;;;;;;8.73;2.80;;;20.40;99.90;;;;;;5081008;28;20504;-72
2022/08/05 10:26:20;;;;;;;3.23;2.93;;;20.50;99.90;;;;;;5082793;28;20482;-72
2022/08/05 10:28:47;;;;;;;7.63;3.33;;;20.50;99.90;;;;;;5080735;28;21296;-72
2022/08/05 10:31:15;;;;;;;2.60;2.40;;;20.60;99.90;;;;;;5079334;28;20969;-72
2022/08/05 10:33:43;;;;;;;4.30;2.70;;;20.30;99.90;;;;;;5074799;28;20499;-71
2022/08/05 10:36:11;;;;;;;4.30;3.37;;;20.30;99.90;;;;;;5081250;28;20477;-72
2022/08/05 10:38:44;;;;;;;6.83;2.70;;;20.50;99.90;;;;;;5077398;28;20484;-72
2022/08/05 10:41:17;;;;;;;4.17;2.73;;;20.70;99.90;;;;;;5077960;28;20479;-72
2022/08/05 10:43:51;;;;;;;3.07;2.40;;;20.80;99.90;;;;;;5081134;28;20823;-72
2022/08/05 10:46:20;;;;;;;2.90;2.60;;;21.00;99.90;;;;;;5081201;28;20465;-71
2022/08/05 10:48:49;;;;;;;6.70;3.00;;;21.20;99.90;;;;;;5082718;28;20469;-72
2022/08/05 10:51:18;;;;;;;3.30;3.00;;;21.40;99.90;;;;;;5083454;28;20907;-71
2022/08/05 10:53:53;;;;;;;4.50;2.50;;;21.60;99.90;;;;;;5080742;28;20450;-71
2022/08/05 10:56:22;;;;;;;5.40;2.40;;;21.90;99.90;;;;;;5082443;28;20846;-72
2022/08/05 10:59:02;;;;;;;3.53;2.27;;;21.50;99.90;;;;;;5076622;28;20481;-71
2022/08/05 11:01:30;;;;;;;2.20;1.93;;;21.80;99.90;;;;;;5077570;28;20489;-71
2022/08/05 11:04:10;;;;;;;3.30;1.70;;;22.20;99.90;;;;;;5079433;28;20465;-72
2022/08/05 11:07:05;;;;;;;2.97;2.53;;;23.20;99.90;;;;;;5081600;28;20516;-73
2022/08/05 11:09:39;;;;;;;5.40;2.10;;;23.40;99.90;;;;;;5078586;28;20558;-72
2022/08/05 11:12:27;;;;;;;2.27;1.93;;;23.50;99.90;;;;;;5082217;28;20603;-72
2022/08/05 11:15:06;;;;;;;3.10;2.03;;;23.70;99.90;;;;;;5073230;28;20457;-72
2022/08/05 11:17:36;;;;;;;2.27;1.53;;;23.70;99.90;;;;;;5084952;28;20484;-72
2022/08/05 11:20:04;;;;;;;2.87;2.33;;;23.90;99.90;;;;;;5083982;28;21135;-73
2022/08/05 11:22:47;;;;;;;2.70;1.50;;;25.00;99.90;;;;;;5080140;28;20554;-73
2022/08/05 11:25:34;;;;;;;2.70;1.63;;;25.90;99.90;;;;;;5073368;28;20537;-73
2022/08/05 11:28:41;;;;;;;5.83;1.80;;;26.80;99.90;;;;;;5079052;28;20578;-73
2022/08/05 11:31:29;;;;;;;2.50;1.40;;;27.10;99.90;;;;;;5074378;28;21106;-73
2022/08/05 11:34:06;;;;;;;2.27;1.57;;;28.00;99.90;;;;;;5077612;28;20954;-73
2022/08/05 11:36:49;;;;;;;3.40;2.00;;;28.30;99.90;;;;;;5081328;28;20445;-72
2022/08/05 11:39:48;;;;;;;2.33;1.43;;;27.90;99.90;;;;;;5078830;28;20899;-73
2022/08/05 11:42:17;;;;;;;2.53;1.80;;;26.80;99.90;;;;;;5077432;28;21025;-72
2022/08/05 11:44:44;;;;;;;2.77;1.67;;;26.50;99.90;;;;;;5078618;28;20453;-72
2022/08/05 11:47:12;;;;;;;2.73;2.00;;;26.40;99.90;;;;;;5075407;28;20903;-73
2022/08/05 11:49:40;;;;;;;3.87;1.63;;;27.00;99.90;;;;;;5077492;28;20463;-74
2022/08/05 11:52:06;;;;;;;1.53;1.43;;;27.30;99.90;;;;;;5080374;28;20455;-73
2022/08/05 11:54:36;;;;;;;7.03;3.43;;;27.20;99.90;;;;;;5082927;28;20462;-71
2022/08/05 11:57:05;;;;;;;2.00;1.83;;;27.30;99.90;;;;;;5071925;28;20586;-72
2022/08/05 11:59:33;;;;;;;4.80;1.90;;;28.00;99.90;;;;;;5079568;28;20524;-72
2022/08/05 12:02:02;;;;;;;1.80;1.40;;;28.50;99.90;;;;;;5077338;28;20483;-71
2022/08/05 12:04:38;;;;;;;1.70;1.57;;;29.40;99.90;;;;;;5075716;28;20461;-72
2022/08/05 12:07:07;;;;;;;4.33;2.40;;;30.70;99.90;;;;;;5083571;28;21120;-72
2022/08/05 12:09:39;;;;;;;2.43;2.00;;;30.60;99.90;;;;;;5076151;28;20658;-72
2022/08/05 12:12:06;;;;;;;2.47;2.13;;;28.90;99.90;;;;;;5081018;28;20451;-72
2022/08/05 12:14:38;;;;;;;3.20;2.40;;;27.80;99.90;;;;;;5078784;28;20838;-72
2022/08/05 12:17:08;;;;;;;4.23;1.97;;;28.00;99.90;;;;;;5077732;28;20879;-72
2022/08/05 12:19:41;;;;;;;2.40;2.17;;;28.50;99.90;;;;;;5082710;28;20443;-71
2022/08/05 12:22:09;;;;;;;3.17;1.87;;;28.00;99.90;;;;;;5082798;28;20471;-73
2022/08/05 12:24:41;;;;;;;6.90;6.30;;;27.10;99.90;;;;;;5085385;28;20963;-72
2022/08/05 12:27:09;;;;;;;3.27;2.60;;;27.00;99.90;;;;;;5077988;28;20456;-72
2022/08/05 12:29:36;;;;;;;3.30;2.27;;;27.30;99.90;;;;;;5061542;22;20943;-71
2022/08/05 12:32:05;;;;;;;3.30;2.33;;;28.40;99.90;;;;;;5057906;28;20476;-71
2022/08/05 12:34:35;;;;;;;4.17;2.83;;;29.90;99.90;;;;;;5057459;28;20468;-70
2022/08/05 12:37:09;;;;;;;2.83;2.47;;;29.80;99.90;;;;;;5062192;28;20445;-70
2022/08/05 12:39:38;;;;;;;4.43;2.47;;;29.40;99.90;;;;;;5051179;28;20473;-70
2022/08/05 12:42:09;;;;;;;3.93;2.50;;;28.40;99.90;;;;;;5042582;28;20487;-70
2022/08/05 12:44:37;;;;;;;2.20;1.90;;;27.50;99.90;;;;;;5041334;28;20453;-70
2022/08/05 12:47:04;;;;;;;3.23;2.93;;;26.90;99.90;;;;;;5040658;28;20469;-71
2022/08/05 12:49:43;;;;;;;4.67;2.70;;;26.10;99.90;;;;;;5044468;28;20510;-70
2022/08/05 12:52:14;;;;;;;3.87;2.70;;;26.10;99.90;;;;;;5044522;28;20442;-70
2022/08/05 12:54:44;;;;;;;2.73;2.47;;;26.00;99.90;;;;;;5044325;28;20443;-70
2022/08/05 12:57:11;;;;;;;4.80;2.87;;;26.00;99.90;;;;;;5036969;28;20471;-70
2022/08/05 12:59:47;;;;;;;2.50;2.07;;;25.70;99.90;;;;;;5044209;28;20466;-70
2022/08/05 13:02:18;;;;;;;3.10;2.10;;;25.10;99.90;;;;;;5040869;28;21067;-69